KOTG

Details ICAO KOTG
Name WORTHINGTON MUNI
Region United States
Timezone America/Chicago (UTC-5.0)
Plans Departing 4
Arriving 0
Stats Elevation 1,574 ft / 480 m (AMSL)
Location 43.655158° -95.579714°
Runways 2
Magnetic Variation 2.129° E
Sunrise 2018-05-22 10:51:55 UTC / 2018-05-22 05:51:55 Local
Sunset 2018-05-23 01:48:57 UTC / 2018-05-22 20:48:57 Local
Advertisement - Login to hide

Runways

ID Width Length Bearing (true) Bearing (mag) Surface Threshold Offset Overrun Length
11 100 ft / 30 m 5,496 ft / 1,675 m 114.80° 112.67° Asphalt 0 ft / 0 m 0 ft / 0 m
17 100 ft / 30 m 4,205 ft / 1,282 m 179.97° 177.84° Asphalt 0 ft / 0 m 0 ft / 0 m
29 100 ft / 30 m 5,496 ft / 1,675 m 294.81° 292.68° Asphalt 0 ft / 0 m 0 ft / 0 m
35 100 ft / 30 m 4,205 ft / 1,282 m 359.97° 357.84° Asphalt 0 ft / 0 m 800 ft / 244 m

Map

Weather


0- 5 10 15 20 25 30 35+ Temperature / ° C

Clouds and Precipitation
Forecast for 2018-05-22 18:00 UTC. Updated 5 hours ago

Ground ~20,000 ft ~40,000 ft Winds

METAR

KOTG 222056Z AUTO 17012G16KT 10SM 25/16 A3000 RMK AO2 SLP155 T02500161 56011

TAF

Not found

Frequencies

Unicom 122.80 MHz CTAF/UNICOM
Warning: Do not use this data for real-world aviation or navigation. No guarantee of current accuracy is given.